BAW22 VHHH-EGLL
Flight info
| Callsign | BAW22 |
|---|---|
| Flight time | N/A |
| Altitude | 34100 |
| Route | BEKOL A461 SHL W22 TEPID W24 OSNOV G586 QP B330 ELKAL W179 IGNAK/K0928S1010 W179 WFX/K0922S1040 W179 OMBON W195 VIDEK/K0919S1010 W195 LAXAL/K0909S1040 W195 IDOPA W197 ANDIM B215 IBANO G470 AKLAS W192 FKG A368 SARIN/K0911F340 N161 GOMAL/K0904F360 N161 GASBI/N0490F360 N161 LEYLA/N0487F380 T916 MATAL DCT REBLO UR317 TBN UM11 CRM UL746 ODERO DCT OPT DCT TEGRI DCT GAZDA DCT ARSIN DCT PEROL DCT RENKA/N0478F400 DCT INBED DCT BOMBI DCT DENUT L608 LOGAN |
| Aircraft | A35K/H-VGDW/C |
Departure
| Time | N/A |
|---|---|
| Airport | Hong Kong International Airport (VHHH) |
Arrival
| Time | 2026-05-03 21:08 |
|---|---|
| Airport | London Heathrow Airport (EGLL) |
| Time | Latitude | Longitude | Altitude | Speed | Heading |
|---|---|---|---|---|---|
| 2026-05-03 20:15 | 50.31044 | 7.79330 | 42986 ft | 485 kts | 289° |
| 2026-05-03 20:15 | 50.33448 | 7.69549 | 42986 ft | 485 kts | 289° |
| 2026-05-03 20:16 | 50.35859 | 7.59692 | 42984 ft | 484 kts | 289° |
| 2026-05-03 20:16 | 50.38262 | 7.49825 | 42985 ft | 484 kts | 288° |
| 2026-05-03 20:17 | 50.40654 | 7.39961 | 42998 ft | 484 kts | 288° |
| 2026-05-03 20:17 | 50.43043 | 7.30062 | 42991 ft | 485 kts | 288° |
| 2026-05-03 20:18 | 50.45421 | 7.20165 | 42991 ft | 485 kts | 288° |
| 2026-05-03 20:18 | 50.47791 | 7.10253 | 42987 ft | 485 kts | 288° |
| 2026-05-03 20:19 | 50.50152 | 7.00337 | 42982 ft | 485 kts | 288° |
| 2026-05-03 20:19 | 50.52510 | 6.90388 | 42978 ft | 486 kts | 288° |
| 2026-05-03 20:20 | 50.54861 | 6.80420 | 42967 ft | 486 kts | 288° |
| 2026-05-03 20:20 | 50.57188 | 6.70513 | 42961 ft | 486 kts | 288° |
| 2026-05-03 20:21 | 50.59524 | 6.60519 | 42950 ft | 486 kts | 288° |
| 2026-05-03 20:21 | 50.61854 | 6.50501 | 42948 ft | 487 kts | 288° |
| 2026-05-03 20:22 | 50.64178 | 6.40468 | 42953 ft | 488 kts | 288° |
| 2026-05-03 20:22 | 50.66493 | 6.30419 | 42948 ft | 488 kts | 287° |
| 2026-05-03 20:23 | 50.68806 | 6.20336 | 42960 ft | 488 kts | 287° |
| 2026-05-03 20:23 | 50.71108 | 6.10256 | 42949 ft | 489 kts | 287° |
| 2026-05-03 20:24 | 50.73392 | 6.00203 | 42959 ft | 489 kts | 287° |
| 2026-05-03 20:24 | 50.75683 | 5.90073 | 42960 ft | 489 kts | 287° |
| 2026-05-03 20:25 | 50.77963 | 5.79942 | 42962 ft | 489 kts | 287° |
| 2026-05-03 20:25 | 50.80238 | 5.69785 | 42964 ft | 489 kts | 287° |
| 2026-05-03 20:26 | 50.82502 | 5.59623 | 42966 ft | 490 kts | 287° |
| 2026-05-03 20:26 | 50.84755 | 5.49466 | 42958 ft | 489 kts | 287° |
| 2026-05-03 20:27 | 50.86999 | 5.39299 | 42960 ft | 489 kts | 287° |
| 2026-05-03 20:27 | 50.89235 | 5.29120 | 42950 ft | 489 kts | 287° |
| 2026-05-03 20:28 | 50.91464 | 5.18921 | 42944 ft | 489 kts | 287° |
| 2026-05-03 20:28 | 50.93666 | 5.08796 | 42942 ft | 490 kts | 287° |
| 2026-05-03 20:29 | 50.95877 | 4.98577 | 42937 ft | 490 kts | 287° |
| 2026-05-03 20:29 | 50.98078 | 4.88354 | 42936 ft | 490 kts | 286° |
| 2026-05-03 20:30 | 50.99903 | 4.79839 | 42940 ft | 490 kts | 286° |
| 2026-05-03 20:30 | 51.02458 | 4.67860 | 42956 ft | 490 kts | 286° |
| 2026-05-03 20:31 | 51.04269 | 4.59321 | 42961 ft | 491 kts | 286° |
| 2026-05-03 20:31 | 51.06445 | 4.49019 | 42938 ft | 492 kts | 286° |
| 2026-05-03 20:32 | 51.08614 | 4.38696 | 42939 ft | 492 kts | 286° |
| 2026-05-03 20:32 | 51.10774 | 4.28365 | 42938 ft | 492 kts | 286° |
| 2026-05-03 20:33 | 51.12924 | 4.18026 | 42936 ft | 492 kts | 286° |
| 2026-05-03 20:33 | 51.15065 | 4.07676 | 42932 ft | 492 kts | 286° |
| 2026-05-03 20:34 | 51.17199 | 3.97311 | 42923 ft | 492 kts | 286° |
| 2026-05-03 20:34 | 51.19322 | 3.86943 | 42919 ft | 492 kts | 285° |
| 2026-05-03 20:35 | 51.21436 | 3.76559 | 42919 ft | 492 kts | 285° |
| 2026-05-03 20:35 | 51.23713 | 3.66254 | 42917 ft | 494 kts | 292° |
| 2026-05-03 20:36 | 51.26976 | 3.56646 | 42918 ft | 496 kts | 297° |
| 2026-05-03 20:36 | 51.30482 | 3.47141 | 42914 ft | 497 kts | 298° |
| 2026-05-03 20:37 | 51.33988 | 3.37629 | 42910 ft | 496 kts | 295° |
| 2026-05-03 20:37 | 51.36722 | 3.27536 | 42940 ft | 493 kts | 291° |
| 2026-05-03 20:38 | 51.39187 | 3.17290 | 42917 ft | 494 kts | 288° |
| 2026-05-03 20:38 | 51.41600 | 3.06989 | 42917 ft | 494 kts | 288° |
| 2026-05-03 20:39 | 51.44008 | 2.96678 | 42242 ft | 494 kts | 288° |
| 2026-05-03 20:39 | 51.45209 | 2.91530 | 42979 ft | 493 kts | 288° |
| 2026-05-03 20:39 | 51.46411 | 2.86374 | 42929 ft | 494 kts | 288° |
| 2026-05-03 20:40 | 51.48813 | 2.76046 | 42914 ft | 494 kts | 288° |
| 2026-05-03 20:40 | 51.51197 | 2.65753 | 42914 ft | 495 kts | 288° |
| 2026-05-03 20:41 | 51.53585 | 2.55392 | 42914 ft | 495 kts | 288° |
| 2026-05-03 20:41 | 51.55968 | 2.45022 | 42768 ft | 490 kts | 288° |
| 2026-05-03 20:41 | 51.57143 | 2.39893 | 42002 ft | 490 kts | 287° |
| 2026-05-03 20:42 | 51.58316 | 2.34746 | 41208 ft | 491 kts | 287° |
| 2026-05-03 20:42 | 51.59491 | 2.29582 | 40434 ft | 491 kts | 287° |
| 2026-05-03 20:42 | 51.60662 | 2.24419 | 39680 ft | 491 kts | 287° |
| 2026-05-03 20:42 | 51.61821 | 2.19298 | 38960 ft | 484 kts | 287° |
| 2026-05-03 20:43 | 51.62967 | 2.14231 | 38174 ft | 480 kts | 286° |
| 2026-05-03 20:43 | 51.64092 | 2.09246 | 37288 ft | 478 kts | 286° |
| 2026-05-03 20:43 | 51.65482 | 2.04363 | 36376 ft | 484 kts | 298° |
| 2026-05-03 20:43 | 51.67628 | 2.00136 | 35501 ft | 492 kts | 313° |
| 2026-05-03 20:44 | 51.70422 | 1.96888 | 34665 ft | 500 kts | 327° |
| 2026-05-03 20:44 | 51.73542 | 1.94336 | 33827 ft | 506 kts | 331° |
| 2026-05-03 20:44 | 51.76747 | 1.91935 | 32906 ft | 510 kts | 331° |
| 2026-05-03 20:44 | 51.79985 | 1.89529 | 31842 ft | 515 kts | 332° |
| 2026-05-03 20:45 | 51.83228 | 1.87117 | 31169 ft | 510 kts | 331° |
| 2026-05-03 20:45 | 51.86414 | 1.84760 | 30299 ft | 496 kts | 331° |
| 2026-05-03 20:45 | 51.89515 | 1.82488 | 29301 ft | 483 kts | 332° |
| 2026-05-03 20:45 | 51.92542 | 1.80278 | 28428 ft | 469 kts | 332° |
| 2026-05-03 20:46 | 51.95452 | 1.78155 | 27994 ft | 446 kts | 332° |
| 2026-05-03 20:46 | 51.98216 | 1.76146 | 27896 ft | 430 kts | 331° |
| 2026-05-03 20:46 | 52.00699 | 1.73722 | 27902 ft | 418 kts | 315° |
| 2026-05-03 20:46 | 52.02594 | 1.70280 | 27877 ft | 403 kts | 296° |
| 2026-05-03 20:47 | 52.03712 | 1.66203 | 27551 ft | 389 kts | 279° |
| 2026-05-03 20:47 | 52.03978 | 1.61924 | 26863 ft | 376 kts | 261° |
| 2026-05-03 20:47 | 52.03365 | 1.57880 | 26087 ft | 366 kts | 243° |
| 2026-05-03 20:47 | 52.01970 | 1.54498 | 25389 ft | 359 kts | 227° |
| 2026-05-03 20:48 | 52.00360 | 1.51450 | 24508 ft | 354 kts | 230° |
| 2026-05-03 20:48 | 51.98801 | 1.48341 | 23959 ft | 358 kts | 230° |
| 2026-05-03 20:48 | 51.97225 | 1.45241 | 23545 ft | 352 kts | 230° |
| 2026-05-03 20:48 | 51.95658 | 1.42215 | 23039 ft | 350 kts | 229° |
| 2026-05-03 20:49 | 51.94084 | 1.39210 | 22577 ft | 348 kts | 229° |
| 2026-05-03 20:49 | 51.92512 | 1.36233 | 22151 ft | 347 kts | 229° |
| 2026-05-03 20:49 | 51.90944 | 1.33275 | 21718 ft | 345 kts | 229° |
| 2026-05-03 20:49 | 51.89399 | 1.30370 | 21293 ft | 344 kts | 229° |
| 2026-05-03 20:50 | 51.87833 | 1.27433 | 20907 ft | 344 kts | 229° |
| 2026-05-03 20:50 | 51.86280 | 1.24523 | 20458 ft | 340 kts | 229° |
| 2026-05-03 20:50 | 51.84734 | 1.21633 | 20021 ft | 339 kts | 229° |
| 2026-05-03 20:50 | 51.83192 | 1.18752 | 19582 ft | 338 kts | 229° |
| 2026-05-03 20:51 | 51.81653 | 1.15881 | 19152 ft | 337 kts | 229° |
| 2026-05-03 20:51 | 51.80116 | 1.13017 | 18722 ft | 336 kts | 228° |
| 2026-05-03 20:51 | 51.78584 | 1.10167 | 18262 ft | 336 kts | 228° |
| 2026-05-03 20:51 | 51.77058 | 1.07330 | 17804 ft | 334 kts | 228° |
| 2026-05-03 20:52 | 51.75538 | 1.04508 | 17361 ft | 332 kts | 228° |
| 2026-05-03 20:52 | 51.74029 | 1.01710 | 16923 ft | 329 kts | 228° |
| 2026-05-03 20:52 | 51.72533 | 0.98926 | 16469 ft | 327 kts | 229° |
| 2026-05-03 20:52 | 51.71212 | 0.95955 | 16057 ft | 326 kts | 240° |
| 2026-05-03 20:53 | 51.70342 | 0.92574 | 15924 ft | 330 kts | 253° |
| 2026-05-03 20:53 | 51.69928 | 0.88947 | 15645 ft | 328 kts | 261° |
| 2026-05-03 20:53 | 51.69670 | 0.85287 | 15079 ft | 329 kts | 262° |
| 2026-05-03 20:53 | 51.69433 | 0.81670 | 14567 ft | 328 kts | 262° |
| 2026-05-03 20:54 | 51.69188 | 0.78025 | 14093 ft | 326 kts | 262° |
| 2026-05-03 20:54 | 51.68688 | 0.70799 | 13138 ft | 321 kts | 262° |
| 2026-05-03 20:54 | 51.68434 | 0.67206 | 12800 ft | 334 kts | 262° |
| 2026-05-03 20:55 | 51.68158 | 0.63319 | 12750 ft | 353 kts | 262° |
| 2026-05-03 20:55 | 51.67888 | 0.59537 | 12454 ft | 327 kts | 262° |
| 2026-05-03 20:55 | 51.67636 | 0.56021 | 12046 ft | 306 kts | 262° |
| 2026-05-03 20:55 | 51.67393 | 0.52672 | 11410 ft | 296 kts | 262° |
| 2026-05-03 20:56 | 51.67156 | 0.49424 | 10898 ft | 284 kts | 262° |
| 2026-05-03 20:56 | 51.66926 | 0.46274 | 10511 ft | 284 kts | 262° |
| 2026-05-03 20:56 | 51.66694 | 0.43124 | 10050 ft | 283 kts | 262° |
| 2026-05-03 20:56 | 51.66460 | 0.39977 | 9684 ft | 285 kts | 262° |
| 2026-05-03 20:57 | 51.66225 | 0.36812 | 9300 ft | 282 kts | 262° |
| 2026-05-03 20:57 | 51.65969 | 0.33696 | 8919 ft | 280 kts | 258° |
| 2026-05-03 20:57 | 51.65201 | 0.30863 | 8598 ft | 277 kts | 233° |
| 2026-05-03 20:57 | 51.63970 | 0.28496 | 8256 ft | 275 kts | 227° |
| 2026-05-03 20:58 | 51.62661 | 0.26249 | 7940 ft | 275 kts | 226° |
| 2026-05-03 20:58 | 51.61344 | 0.24016 | 7608 ft | 273 kts | 226° |
| 2026-05-03 20:58 | 51.60048 | 0.21818 | 7315 ft | 267 kts | 226° |
| 2026-05-03 20:58 | 51.58794 | 0.19690 | 7137 ft | 256 kts | 226° |
| 2026-05-03 20:59 | 51.57600 | 0.17662 | 7030 ft | 250 kts | 226° |
| 2026-05-03 20:59 | 51.56401 | 0.15656 | 6962 ft | 244 kts | 223° |
| 2026-05-03 20:59 | 51.55196 | 0.13839 | 6884 ft | 231 kts | 224° |
| 2026-05-03 20:59 | 51.54198 | 0.11902 | 6739 ft | 221 kts | 239° |
| 2026-05-03 21:00 | 51.53772 | 0.09598 | 6500 ft | 216 kts | 271° |
| 2026-05-03 21:00 | 51.53848 | 0.08795 | 6439 ft | 216 kts | 284° |
| 2026-05-03 21:00 | 51.55431 | 0.05725 | 6099 ft | 220 kts | 314° |
| 2026-05-03 21:00 | 51.56152 | 0.03608 | 5901 ft | 217 kts | 280° |
| 2026-05-03 21:01 | 51.56030 | 0.01251 | 5696 ft | 213 kts | 246° |
| 2026-05-03 21:01 | 51.55273 | -0.00772 | 5488 ft | 212 kts | 232° |
| 2026-05-03 21:01 | 51.54331 | -0.02600 | 5297 ft | 213 kts | 224° |
| 2026-05-03 21:01 | 51.53253 | -0.04216 | 5048 ft | 212 kts | 221° |
| 2026-05-03 21:02 | 51.52151 | -0.05791 | 4783 ft | 211 kts | 221° |
| 2026-05-03 21:02 | 51.51066 | -0.07338 | 4521 ft | 206 kts | 221° |
| 2026-05-03 21:02 | 51.50004 | -0.08847 | 4259 ft | 201 kts | 220° |
| 2026-05-03 21:02 | 51.48970 | -0.10315 | 3998 ft | 197 kts | 221° |
| 2026-05-03 21:03 | 51.47999 | -0.11824 | 3740 ft | 192 kts | 226° |
| 2026-05-03 21:03 | 51.47283 | -0.13590 | 3480 ft | 191 kts | 254° |
| 2026-05-03 21:03 | 51.47217 | -0.15679 | 3221 ft | 190 kts | 285° |
| 2026-05-03 21:03 | 51.47698 | -0.17631 | 3018 ft | 188 kts | 289° |
| 2026-05-03 21:04 | 51.47883 | -0.19685 | 2986 ft | 188 kts | 273° |
| 2026-05-03 21:04 | 51.47924 | -0.21757 | 2955 ft | 185 kts | 271° |
| 2026-05-03 21:04 | 51.47946 | -0.23779 | 2658 ft | 178 kts | 271° |
| 2026-05-03 21:04 | 51.47931 | -0.25770 | 2194 ft | 178 kts | 268° |
| 2026-05-03 21:05 | 51.47881 | -0.27680 | 2000 ft | 163 kts | 268° |
| 2026-05-03 21:05 | 51.47844 | -0.29397 | 1794 ft | 149 kts | 268° |
| 2026-05-03 21:05 | 51.47815 | -0.31030 | 1462 ft | 145 kts | 268° |
| 2026-05-03 21:05 | 51.47826 | -0.32629 | 1228 ft | 141 kts | 270° |
| 2026-05-03 21:06 | 51.47803 | -0.34185 | 1057 ft | 141 kts | 266° |
| 2026-05-03 21:06 | 51.47781 | -0.35765 | 888 ft | 142 kts | 271° |
| 2026-05-03 21:06 | 51.47798 | -0.37351 | 777 ft | 143 kts | 269° |
| 2026-05-03 21:06 | 51.47783 | -0.38942 | 581 ft | 141 kts | 268° |
| 2026-05-03 21:07 | 51.47778 | -0.40510 | 415 ft | 141 kts | 269° |
| 2026-05-03 21:07 | 51.47770 | -0.42071 | 283 ft | 140 kts | 269° |
| 2026-05-03 21:07 | 51.47766 | -0.43638 | 116 ft | 141 kts | 271° |
| 2026-05-03 21:07 | 51.47761 | -0.45112 | 98 ft | 115 kts | 269° |
| 2026-05-03 21:08 | 51.47758 | -0.46178 | 96 ft | 76 kts | 269° |
| 2026-05-03 21:08 | 51.47756 | -0.46837 | 99 ft | 46 kts | 270° |
| 2026-05-03 21:08 | 51.47756 | -0.47176 | 96 ft | 22 kts | 269° |
| 2026-05-03 21:08 | 51.47736 | -0.47348 | 96 ft | 9 kts | 225° |
| 2026-05-03 21:09 | 51.47682 | -0.47385 | 96 ft | 10 kts | 191° |
| 2026-05-03 21:09 | 51.47608 | -0.47393 | 95 ft | 11 kts | 189° |
| 2026-05-03 21:09 | 51.47582 | -0.47479 | 96 ft | 10 kts | 260° |
| 2026-05-03 21:09 | 51.47580 | -0.47607 | 96 ft | 13 kts | 269° |
| 2026-05-03 21:10 | 51.47579 | -0.47767 | 96 ft | 16 kts | 269° |
| 2026-05-03 21:10 | 51.47510 | -0.47876 | 93 ft | 16 kts | 183° |
| 2026-05-03 21:10 | 51.47394 | -0.47875 | 93 ft | 14 kts | 180° |
| 2026-05-03 21:10 | 51.47289 | -0.47874 | 96 ft | 17 kts | 179° |
| 2026-05-03 21:11 | 51.47238 | -0.47902 | 97 ft | 5 kts | 251° |
| 2026-05-03 21:11 | 51.47231 | -0.47927 | 96 ft | 2 kts | 230° |
| 2026-05-03 21:11 | 51.47217 | -0.47956 | 97 ft | 5 kts | 243° |
| 2026-05-03 21:11 | 51.47213 | -0.48017 | 96 ft | 7 kts | 270° |
| 2026-05-03 21:12 | 51.47213 | -0.48022 | 96 ft | 0 kts | 270° |